createdAt,value
2023-02-04T00:01:01.977Z,16.20
2023-02-04T00:04:05.492Z,15.00
2023-02-04T00:07:09.199Z,15.00
2023-02-04T00:10:12.526Z,14.00
2023-02-04T00:13:16.178Z,16.20
2023-02-04T00:16:20.992Z,15.00
2023-02-04T00:19:24.530Z,14.00
2023-02-04T00:22:29.222Z,13.40
2023-02-04T00:25:32.637Z,12.20
2023-02-04T00:28:36.276Z,12.00
2023-02-04T00:31:40.997Z,11.00
2023-02-04T00:34:44.420Z,11.60
2023-02-04T00:37:47.761Z,13.00
2023-02-04T00:40:51.289Z,10.00
2023-02-04T00:43:55.022Z,11.60
2023-02-04T00:46:59.658Z,14.40
2023-02-04T00:50:03.570Z,9.00
2023-02-04T00:53:07.360Z,8.60
2023-02-04T00:56:10.663Z,10.20
2023-02-04T00:59:14.113Z,7.25
2023-02-04T01:02:18.792Z,11.00
2023-02-04T01:05:22.138Z,10.25
2023-02-04T01:08:25.356Z,10.00
2023-02-04T01:11:29.247Z,8.40
2023-02-04T01:14:32.918Z,8.25
2023-02-04T01:17:37.874Z,7.40
2023-02-04T01:20:41.126Z,6.60
2023-02-04T01:23:45.245Z,8.00
2023-02-04T01:26:48.479Z,7.00
2023-02-04T01:29:52.675Z,6.00
2023-02-04T01:32:57.364Z,6.60
2023-02-04T01:36:00.789Z,7.00
2023-02-04T01:39:05.819Z,7.00
2023-02-04T01:42:09.327Z,6.40
2023-02-04T01:45:13.160Z,7.80
2023-02-04T01:48:21.416Z,5.00
2023-02-04T01:51:30.406Z,6.50
2023-02-04T01:54:33.809Z,6.00
2023-02-04T01:57:38.170Z,4.00
2023-02-04T02:00:41.882Z,5.75
2023-02-04T02:03:46.609Z,4.00
2023-02-04T02:06:54.154Z,6.20
2023-02-04T02:09:57.402Z,3.00
2023-02-04T02:13:01.048Z,4.00
2023-02-04T02:16:04.712Z,4.00
2023-02-04T02:19:14.926Z,5.25
2023-02-04T02:22:26.113Z,5.00
2023-02-04T02:25:30.772Z,3.00
2023-02-04T02:28:34.230Z,6.00
2023-02-04T02:31:37.648Z,6.00
2023-02-04T02:34:42.791Z,7.00
2023-02-04T02:37:46.109Z,4.50
2023-02-04T02:40:52.868Z,6.00
2023-02-04T02:43:58.940Z,5.00
2023-02-04T02:47:02.576Z,5.50
2023-02-04T02:50:06.672Z,4.20
2023-02-04T02:53:13.480Z,5.00
2023-02-04T02:56:20.584Z,5.00
2023-02-04T02:59:24.608Z,3.00
2023-02-04T03:02:28.419Z,4.00
2023-02-04T03:05:35.447Z,2.00
2023-02-04T03:08:39.824Z,7.00
2023-02-04T03:11:44.689Z,3.00
2023-02-04T03:14:48.221Z,4.00
2023-02-04T03:17:56.538Z,3.00
2023-02-04T03:21:00.320Z,3.60
2023-02-04T03:24:04.125Z,4.25
2023-02-04T03:27:09.259Z,5.00
2023-02-04T03:30:13.042Z,3.40
2023-02-04T03:33:16.416Z,4.00
2023-02-04T03:36:20.332Z,3.00
2023-02-04T03:39:23.664Z,5.00
2023-02-04T03:42:28.660Z,4.00
2023-02-04T03:45:40.668Z,2.00
2023-02-04T03:48:48.159Z,4.00
2023-02-04T03:51:51.758Z,3.75
2023-02-04T03:54:55.054Z,4.00
2023-02-04T03:57:59.988Z,4.60
2023-02-04T04:01:03.349Z,3.50
2023-02-04T04:04:06.665Z,4.00
2023-02-04T04:07:10.071Z,3.00
2023-02-04T04:10:13.326Z,5.00
2023-02-04T04:13:17.968Z,5.00
2023-02-04T04:16:22.015Z,6.00
2023-02-04T04:19:25.733Z,5.00
2023-02-04T04:22:29.212Z,6.00
2023-02-04T04:25:32.480Z,4.00
2023-02-04T04:28:37.212Z,3.60
2023-02-04T04:31:41.070Z,5.00
2023-02-04T04:34:44.412Z,2.00
2023-02-04T04:37:48.066Z,5.00
2023-02-04T04:40:51.389Z,4.60
2023-02-04T04:43:56.058Z,5.60
2023-02-04T04:46:59.388Z,7.75
2023-02-04T04:50:02.855Z,8.00
2023-02-04T04:53:11.094Z,9.60
2023-02-04T04:56:14.545Z,9.00
2023-02-04T04:59:19.293Z,11.00
2023-02-04T05:02:22.812Z,10.75
2023-02-04T05:05:26.217Z,16.00
2023-02-04T05:08:29.503Z,15.25
2023-02-04T05:11:32.821Z,13.00
2023-02-04T05:14:37.495Z,14.20
2023-02-04T05:17:40.777Z,14.60
2023-02-04T05:20:44.151Z,11.00
2023-02-04T05:23:47.650Z,12.80
2023-02-04T05:26:51.062Z,11.67
2023-02-04T05:29:55.693Z,13.00
2023-02-04T05:32:59.052Z,10.40
2023-02-04T05:36:02.290Z,10.00
2023-02-04T05:39:05.759Z,11.75
2023-02-04T05:42:09.050Z,9.00
2023-02-04T05:45:16.708Z,9.60
2023-02-04T05:48:20.044Z,6.00
2023-02-04T05:51:23.655Z,10.40
2023-02-04T05:54:26.938Z,10.00
2023-02-04T05:57:30.209Z,8.75
2023-02-04T06:00:34.970Z,8.20
2023-02-04T06:03:38.458Z,10.25
2023-02-04T06:06:41.909Z,10.25
2023-02-04T06:09:45.206Z,12.60
2023-02-04T06:12:48.615Z,9.00
2023-02-04T06:15:53.443Z,9.00
2023-02-04T06:18:56.660Z,7.00
2023-02-04T06:21:59.989Z,8.40
2023-02-04T06:25:03.360Z,7.75
2023-02-04T06:28:06.797Z,10.00
2023-02-04T06:31:11.592Z,7.60
2023-02-04T06:34:14.889Z,9.00
2023-02-04T06:37:18.275Z,7.00
2023-02-04T06:40:21.757Z,7.00
2023-02-04T06:43:25.670Z,10.20
2023-02-04T06:46:30.563Z,7.40
2023-02-04T06:49:33.815Z,10.00
2023-02-04T06:52:37.335Z,9.00
2023-02-04T06:55:40.874Z,6.00
2023-02-04T06:58:44.261Z,8.50
2023-02-04T07:01:49.043Z,6.00
2023-02-04T07:04:52.756Z,5.00
2023-02-04T07:07:56.070Z,8.00
2023-02-04T07:10:59.409Z,8.50
2023-02-04T07:14:02.746Z,9.00
2023-02-04T07:17:07.327Z,8.60
2023-02-04T07:20:12.087Z,9.00
2023-02-04T07:23:15.408Z,12.00
2023-02-04T07:26:18.875Z,9.00
2023-02-04T07:29:25.632Z,10.75
2023-02-04T07:32:33.154Z,8.75
2023-02-04T07:35:38.152Z,8.00
2023-02-04T07:38:41.465Z,10.00
2023-02-04T07:41:44.735Z,10.50
2023-02-04T07:44:50.646Z,11.40
2023-02-04T07:47:55.327Z,13.00
2023-02-04T07:50:58.676Z,12.50
2023-02-04T07:54:02.161Z,9.80
2023-02-04T07:57:05.427Z,12.00
2023-02-04T08:00:09.885Z,13.00
2023-02-04T08:03:20.151Z,10.00
2023-02-04T08:06:23.435Z,10.80
2023-02-04T08:09:27.356Z,10.00
2023-02-04T08:12:30.657Z,11.00
2023-02-04T08:15:34.229Z,8.00
2023-02-04T08:18:38.861Z,10.80
2023-02-04T08:21:42.091Z,9.60
2023-02-04T08:24:45.641Z,9.50
2023-02-04T08:27:49.251Z,11.00
2023-02-04T08:30:52.737Z,11.50
2023-02-04T08:33:57.496Z,10.60
2023-02-04T08:37:00.755Z,12.40
2023-02-04T08:40:04.335Z,9.00
2023-02-04T08:43:07.701Z,10.33
2023-02-04T08:46:11.232Z,12.80
2023-02-04T08:49:15.995Z,13.00
2023-02-04T08:52:19.568Z,10.40
2023-02-04T08:55:22.779Z,10.60
2023-02-04T08:58:26.144Z,13.00
2023-02-04T09:01:29.440Z,10.40
2023-02-04T09:04:34.622Z,10.00
2023-02-04T09:07:37.938Z,6.40
2023-02-04T09:10:41.239Z,10.00
2023-02-04T09:13:44.436Z,9.00
2023-02-04T09:16:49.136Z,8.25
2023-02-04T09:19:53.991Z,9.25
2023-02-04T09:22:57.287Z,9.40
2023-02-04T09:26:01.535Z,11.00
2023-02-04T09:29:05.307Z,9.00
2023-02-04T09:32:08.593Z,10.00
2023-02-04T09:35:13.412Z,13.00
2023-02-04T09:38:16.941Z,11.00
2023-02-04T09:41:20.306Z,11.00
2023-02-04T09:44:27.760Z,11.20
2023-02-04T09:47:31.474Z,12.80
2023-02-04T09:50:36.340Z,11.00
2023-02-04T09:53:40.448Z,11.60
2023-02-04T09:56:44.033Z,10.00
2023-02-04T09:59:48.314Z,13.60
2023-02-04T10:02:51.824Z,14.00
2023-02-04T10:05:56.524Z,12.00
2023-02-04T10:09:01.685Z,11.40
2023-02-04T10:12:05.318Z,9.40
2023-02-04T10:15:14.007Z,12.00
2023-02-04T10:18:23.995Z,13.00
2023-02-04T10:21:32.346Z,14.40
2023-02-04T10:24:35.764Z,20.00
2023-02-04T10:27:49.579Z,13.20
2023-02-04T10:30:53.366Z,16.00
2023-02-04T10:34:08.111Z,12.60
2023-02-04T10:37:21.315Z,19.00
2023-02-04T10:40:30.150Z,14.00
2023-02-04T10:43:33.833Z,14.25
2023-02-04T10:46:37.350Z,14.75
2023-02-04T10:49:40.746Z,12.00
2023-02-04T10:52:48.693Z,10.60
2023-02-04T10:55:53.268Z,9.50
2023-02-04T10:58:56.508Z,11.60
2023-02-04T11:02:02.211Z,9.00
2023-02-04T11:05:12.510Z,11.00
2023-02-04T11:08:23.772Z,9.00
2023-02-04T11:11:27.931Z,8.00
2023-02-04T11:14:31.913Z,10.00
2023-02-04T11:17:36.476Z,8.60
2023-02-04T11:20:41.003Z,12.00
2023-02-04T11:23:45.637Z,8.00
2023-02-04T11:26:51.717Z,8.00
2023-02-04T11:30:07.209Z,8.20
2023-02-04T11:33:24.801Z,8.25
2023-02-04T11:36:30.686Z,6.20
2023-02-04T11:39:38.890Z,9.00
2023-02-04T11:42:43.596Z,8.60
2023-02-04T11:45:47.438Z,9.20
2023-02-04T11:48:53.951Z,8.60
2023-02-04T11:52:09.125Z,10.00
2023-02-04T11:55:14.554Z,10.60
2023-02-04T11:58:21.566Z,8.00
2023-02-04T12:01:26.765Z,9.00
2023-02-04T12:04:30.221Z,8.50
2023-02-04T12:07:33.516Z,7.60
2023-02-04T12:10:38.577Z,13.00
2023-02-04T12:13:49.681Z,15.00
2023-02-04T12:16:53.105Z,10.50
2023-02-04T12:19:57.002Z,10.80
2023-02-04T12:23:00.354Z,9.40
2023-02-04T12:26:06.010Z,12.00
2023-02-04T12:29:10.203Z,11.25
2023-02-04T12:32:13.501Z,10.00
2023-02-04T12:35:17.107Z,13.00
2023-02-04T12:38:20.712Z,13.60
2023-02-04T12:41:25.695Z,11.25
2023-02-04T12:44:29.206Z,11.00
2023-02-04T12:47:32.561Z,8.00
2023-02-04T12:50:35.802Z,8.80
2023-02-04T12:53:39.025Z,8.80
2023-02-04T12:56:43.817Z,9.00
2023-02-04T12:59:47.532Z,8.20
2023-02-04T13:02:50.912Z,10.60
2023-02-04T13:05:54.795Z,6.00
2023-02-04T13:08:58.134Z,6.80
2023-02-04T13:12:03.110Z,7.20
2023-02-04T13:15:07.326Z,6.20
2023-02-04T13:18:10.714Z,12.50
2023-02-04T13:21:14.571Z,7.75
2023-02-04T13:24:18.565Z,8.20
2023-02-04T13:27:23.199Z,7.00
2023-02-04T13:30:26.635Z,10.75
2023-02-04T13:33:30.139Z,6.00
2023-02-04T13:36:33.682Z,8.75
2023-02-04T13:39:36.954Z,7.75
2023-02-04T13:42:41.722Z,5.20
2023-02-04T13:45:48.870Z,8.00
2023-02-04T13:48:52.176Z,8.40
2023-02-04T13:51:55.551Z,5.00
2023-02-04T13:54:58.775Z,8.00
2023-02-04T13:58:03.429Z,6.00
2023-02-04T14:01:06.708Z,6.00
2023-02-04T14:04:09.973Z,6.00
2023-02-04T14:07:13.332Z,8.00
2023-02-04T14:10:17.281Z,7.80
2023-02-04T14:13:21.858Z,8.50
2023-02-04T14:16:25.657Z,8.50
2023-02-04T14:19:28.982Z,10.00
2023-02-04T14:22:32.665Z,8.60
2023-02-04T14:25:36.152Z,7.40
2023-02-04T14:28:40.890Z,9.00
2023-02-04T14:31:44.197Z,9.80
2023-02-04T14:34:47.971Z,9.00
2023-02-04T14:37:51.900Z,9.40
2023-02-04T14:40:55.128Z,9.40
2023-02-04T14:43:59.796Z,6.20
2023-02-04T14:47:03.597Z,10.00
2023-02-04T14:50:12.404Z,7.80
2023-02-04T14:53:15.603Z,10.00
2023-02-04T14:56:19.526Z,8.60
2023-02-04T14:59:24.262Z,9.00
2023-02-04T15:02:27.500Z,9.00
2023-02-04T15:05:30.912Z,9.00
2023-02-04T15:08:34.444Z,9.00
2023-02-04T15:11:37.737Z,10.60
2023-02-04T15:14:42.428Z,11.00
2023-02-04T15:17:45.706Z,10.40
2023-02-04T15:20:49.018Z,12.00
2023-02-04T15:23:52.472Z,9.00
2023-02-04T15:26:55.705Z,9.00
2023-02-04T15:30:00.434Z,7.40
2023-02-04T15:33:03.854Z,8.00
2023-02-04T15:36:07.890Z,8.00
2023-02-04T15:39:11.497Z,11.00
2023-02-04T15:42:14.897Z,8.60
2023-02-04T15:45:19.671Z,11.00
2023-02-04T15:48:24.194Z,11.00
2023-02-04T15:51:27.672Z,11.00
2023-02-04T15:54:31.703Z,10.00
2023-02-04T15:57:35.191Z,11.00
2023-02-04T16:00:39.972Z,10.00
2023-02-04T16:03:44.711Z,11.00
2023-02-04T16:06:58.143Z,8.60
2023-02-04T16:10:02.139Z,7.00
2023-02-04T16:13:05.384Z,11.60
2023-02-04T16:16:10.618Z,15.00
2023-02-04T16:19:13.943Z,14.00
2023-02-04T16:22:17.221Z,12.00
2023-02-04T16:25:20.736Z,11.00
2023-02-04T16:28:24.021Z,12.60
2023-02-04T16:31:28.866Z,12.20
2023-02-04T16:34:32.153Z,12.00
2023-02-04T16:37:36.210Z,11.00
2023-02-04T16:40:39.690Z,10.60
2023-02-04T16:43:42.912Z,11.60
2023-02-04T16:46:49.171Z,7.75
2023-02-04T16:49:52.469Z,12.00
2023-02-04T16:52:55.765Z,13.00
2023-02-04T16:55:59.010Z,14.00
2023-02-04T16:59:03.598Z,14.00
2023-02-04T17:02:08.296Z,12.40
2023-02-04T17:05:11.597Z,9.00
2023-02-04T17:08:17.409Z,12.00
2023-02-04T17:11:32.821Z,13.00
2023-02-04T17:14:36.056Z,13.00
2023-02-04T17:17:41.054Z,12.40
2023-02-04T17:20:44.351Z,11.00
2023-02-04T17:23:47.654Z,10.50
2023-02-04T17:26:50.882Z,12.00
2023-02-04T17:29:54.151Z,13.75
2023-02-04T17:32:58.781Z,12.60
2023-02-04T17:36:02.081Z,14.00
2023-02-04T17:39:05.673Z,15.00
2023-02-04T17:42:09.406Z,14.40
2023-02-04T17:45:13.895Z,9.00
2023-02-04T17:48:18.764Z,12.75
2023-02-04T17:51:22.076Z,10.00
2023-02-04T17:54:25.873Z,12.00
2023-02-04T17:57:29.751Z,16.40
2023-02-04T18:00:33.379Z,13.40
2023-02-04T18:03:38.243Z,15.00
2023-02-04T18:06:41.836Z,11.00
2023-02-04T18:09:45.194Z,14.00
2023-02-04T18:12:49.224Z,13.60
2023-02-04T18:15:55.938Z,11.20
2023-02-04T18:19:16.848Z,15.00
2023-02-04T18:22:20.195Z,15.00
2023-02-04T18:25:24.104Z,15.00
2023-02-04T18:28:27.646Z,19.00
2023-02-04T18:31:35.205Z,18.40
2023-02-04T18:34:42.027Z,22.00
2023-02-04T18:37:48.281Z,19.00
2023-02-04T18:40:52.369Z,20.00
2023-02-04T18:44:02.531Z,20.80
2023-02-04T18:47:24.025Z,17.00
2023-02-04T18:50:31.643Z,20.67
2023-02-04T18:53:36.546Z,21.50
2023-02-04T18:56:39.918Z,20.00
2023-02-04T18:59:43.571Z,20.60
2023-02-04T19:02:49.391Z,21.40
2023-02-04T19:05:55.509Z,22.20
2023-02-04T19:09:09.282Z,23.40
2023-02-04T19:12:21.535Z,20.60
2023-02-04T19:15:36.119Z,17.40
2023-02-04T19:18:42.713Z,14.20
2023-02-04T19:21:47.654Z,18.00
2023-02-04T19:24:55.992Z,19.00
2023-02-04T19:28:01.334Z,16.00
2023-02-04T19:31:06.179Z,16.00
2023-02-04T19:34:24.589Z,14.00
2023-02-04T19:37:32.718Z,19.00
2023-02-04T19:40:39.384Z,12.00
2023-02-04T19:43:42.672Z,11.80
2023-02-04T19:46:46.089Z,12.00
2023-02-04T19:49:49.602Z,12.50
2023-02-04T19:52:57.647Z,11.00
2023-02-04T19:56:00.971Z,11.00
2023-02-04T19:59:24.552Z,11.20
2023-02-04T20:02:36.131Z,12.00
2023-02-04T20:05:39.447Z,12.00
2023-02-04T20:08:46.802Z,13.00
2023-02-04T20:12:05.990Z,13.00
2023-02-04T20:15:18.449Z,13.00
2023-02-04T20:18:23.532Z,14.00
2023-02-04T20:21:27.042Z,9.80
2023-02-04T20:24:36.276Z,14.50
2023-02-04T20:27:42.711Z,13.00
2023-02-04T20:30:46.916Z,15.40
2023-02-04T20:33:51.912Z,13.00
2023-02-04T20:36:55.643Z,9.40
2023-02-04T20:40:01.193Z,11.25
2023-02-04T20:43:11.224Z,13.00
2023-02-04T20:46:22.590Z,14.80
2023-02-04T20:49:27.463Z,11.40
2023-02-04T20:53:03.735Z,12.60
2023-02-04T20:56:28.023Z,12.60
2023-02-04T20:59:34.793Z,12.40
2023-02-04T21:02:39.255Z,17.00
2023-02-04T21:05:42.651Z,15.40
2023-02-04T21:08:47.862Z,15.00
2023-02-04T21:11:53.109Z,14.00
2023-02-04T21:14:56.397Z,13.40
2023-02-04T21:17:59.815Z,12.00
2023-02-04T21:21:04.451Z,14.25
2023-02-04T21:24:08.633Z,14.00
2023-02-04T21:27:14.011Z,14.00
2023-02-04T21:30:18.141Z,11.60
2023-02-04T21:33:21.407Z,11.60
2023-02-04T21:36:27.889Z,11.00
2023-02-04T21:39:32.508Z,13.33
2023-02-04T21:42:37.163Z,14.00
2023-02-04T21:45:40.765Z,11.60
2023-02-04T21:48:44.135Z,11.00
2023-02-04T21:51:47.632Z,14.00
2023-02-04T21:54:50.919Z,13.60
2023-02-04T21:57:55.621Z,12.00
2023-02-04T22:00:58.984Z,11.40
2023-02-04T22:04:02.366Z,11.60
2023-02-04T22:07:05.661Z,13.00
2023-02-04T22:10:10.857Z,11.00
2023-02-04T22:13:15.532Z,11.67
2023-02-04T22:16:18.850Z,14.00
2023-02-04T22:19:22.188Z,11.75
2023-02-04T22:22:25.595Z,11.20
2023-02-04T22:25:29.143Z,11.20
2023-02-04T22:28:33.798Z,13.00
2023-02-04T22:31:37.456Z,14.00
2023-02-04T22:34:40.743Z,15.00
2023-02-04T22:37:44.381Z,12.00
2023-02-04T22:40:48.641Z,12.00
2023-02-04T22:43:53.345Z,16.40
2023-02-04T22:46:56.691Z,12.00
2023-02-04T22:49:59.932Z,13.40
2023-02-04T22:53:03.460Z,11.60
2023-02-04T22:56:07.217Z,15.00
2023-02-04T22:59:11.827Z,14.00
2023-02-04T23:02:15.154Z,10.75
2023-02-04T23:05:18.681Z,10.00
2023-02-04T23:08:22.248Z,14.00
2023-02-04T23:11:25.568Z,15.60
2023-02-04T23:14:30.207Z,14.50
2023-02-04T23:17:33.523Z,11.00
2023-02-04T23:20:38.036Z,14.00
2023-02-04T23:23:42.083Z,13.80
2023-02-04T23:26:45.422Z,13.00
2023-02-04T23:29:50.559Z,14.40
2023-02-04T23:32:53.831Z,11.00
2023-02-04T23:35:57.156Z,11.00
2023-02-04T23:39:00.629Z,10.75
2023-02-04T23:42:03.909Z,11.60
2023-02-04T23:45:09.703Z,11.00
2023-02-04T23:48:13.247Z,9.00
2023-02-04T23:51:16.620Z,10.40
2023-02-04T23:54:20.068Z,12.20
2023-02-04T23:57:23.347Z,10.00
